createdAt,value
2023-03-22T07:25:13.737Z,18.10
2023-03-22T07:25:24.396Z,17.90
2023-03-22T07:25:34.459Z,17.30
2023-03-22T07:25:44.646Z,18.00
2023-03-22T07:25:54.685Z,18.50
2023-03-22T07:26:04.788Z,19.50
2023-03-22T07:26:14.924Z,19.70
2023-03-22T07:26:25.028Z,20.10
2023-03-22T07:26:35.186Z,20.70
2023-03-22T07:26:45.278Z,21.30
2023-03-22T07:26:55.371Z,22.20
2023-03-22T07:27:05.565Z,21.10
2023-03-22T07:27:15.629Z,21.00
2023-03-22T07:27:25.846Z,21.00
2023-03-22T07:27:35.941Z,20.80
2023-03-22T07:27:46.189Z,19.00
2023-03-22T07:27:57.184Z,21.00
2023-03-22T07:28:06.438Z,20.70
2023-03-22T07:28:17.159Z,20.80
2023-03-22T07:28:26.840Z,19.80
2023-03-22T07:28:36.861Z,22.10
2023-03-22T07:28:47.039Z,21.80
2023-03-22T07:28:57.004Z,18.80
2023-03-22T07:29:07.108Z,19.00
2023-03-22T07:29:17.173Z,19.10
2023-03-22T07:29:27.457Z,19.90
2023-03-22T07:29:37.625Z,18.40
2023-03-22T07:29:47.604Z,19.00
2023-03-22T07:29:57.738Z,18.10
2023-03-22T07:30:09.620Z,17.00
2023-03-22T07:30:18.127Z,17.00
2023-03-22T07:30:28.242Z,16.60
2023-03-22T07:30:38.713Z,17.40
2023-03-22T07:30:48.483Z,18.30
2023-03-22T07:30:58.541Z,18.40
2023-03-22T07:31:08.692Z,19.10
2023-03-22T07:31:18.742Z,18.40
2023-03-22T07:31:28.827Z,19.30
2023-03-22T07:31:38.967Z,20.50
2023-03-22T07:31:49.104Z,19.70
2023-03-22T07:31:59.231Z,20.40
2023-03-22T07:32:09.699Z,21.70
2023-03-22T07:32:19.438Z,21.00
2023-03-22T07:32:29.580Z,19.10
2023-03-22T07:32:39.694Z,17.90
2023-03-22T07:32:49.941Z,19.20
2023-03-22T07:33:00.029Z,18.90
2023-03-22T07:33:10.262Z,17.00
2023-03-22T07:33:20.213Z,18.30
2023-03-22T07:33:30.457Z,18.00
2023-03-22T07:33:40.632Z,16.90
2023-03-22T07:33:50.719Z,16.60
2023-03-22T07:34:00.759Z,16.20
2023-03-22T07:34:11.039Z,17.40
2023-03-22T07:34:22.177Z,16.90
2023-03-22T07:34:32.126Z,17.40
2023-03-22T07:34:41.433Z,17.10
2023-03-22T07:34:54.293Z,15.20
2023-03-22T07:35:02.143Z,15.30
2023-03-22T07:35:11.664Z,15.10
2023-03-22T07:35:23.702Z,15.80
2023-03-22T07:35:31.881Z,15.80
2023-03-22T07:35:42.095Z,17.20
2023-03-22T07:35:52.354Z,16.90
2023-03-22T07:36:02.304Z,17.00
2023-03-22T07:36:12.423Z,17.20
2023-03-22T07:36:22.539Z,17.20
2023-03-22T07:36:32.737Z,16.90
2023-03-22T07:36:42.731Z,16.30
2023-03-22T07:36:52.813Z,17.50
2023-03-22T07:37:03.002Z,17.20
2023-03-22T07:37:13.078Z,16.10
2023-03-22T07:37:23.140Z,15.20
2023-03-22T07:37:33.369Z,16.10
2023-03-22T07:37:43.498Z,17.20
2023-03-22T07:37:53.609Z,17.20
2023-03-22T07:38:03.752Z,17.60
2023-03-22T07:38:13.955Z,20.00
2023-03-22T07:38:24.006Z,20.30
2023-03-22T07:38:34.117Z,19.60
2023-03-22T07:38:44.220Z,19.10
2023-03-22T07:38:54.281Z,18.80
2023-03-22T07:39:04.551Z,19.60
2023-03-22T07:39:14.577Z,18.60
2023-03-22T07:39:24.704Z,19.00
2023-03-22T07:39:34.811Z,19.30
2023-03-22T07:39:45.034Z,18.50
2023-03-22T07:39:55.088Z,18.30
2023-03-22T07:40:05.270Z,17.80
2023-03-22T07:40:15.615Z,16.30
2023-03-22T07:40:25.440Z,16.50
2023-03-22T07:40:36.237Z,18.60
2023-03-22T07:40:45.691Z,19.30
2023-03-22T07:40:55.858Z,18.40
2023-03-22T07:41:05.893Z,18.60
2023-03-22T07:41:16.001Z,19.40
2023-03-22T07:41:26.194Z,19.50
2023-03-22T07:41:36.303Z,19.10
2023-03-22T07:41:46.494Z,18.70
2023-03-22T07:41:56.547Z,19.80
2023-03-22T07:42:06.676Z,20.50
2023-03-22T07:42:16.832Z,20.40
2023-03-22T07:42:26.928Z,20.30
2023-03-22T07:42:37.110Z,18.60
2023-03-22T07:42:47.173Z,18.30
2023-03-22T07:42:57.302Z,18.30
2023-03-22T07:43:07.391Z,22.20
2023-03-22T07:43:17.669Z,21.90
2023-03-22T07:43:27.734Z,22.60
2023-03-22T07:43:52.620Z,23.70
2023-03-22T07:44:15.009Z,25.20
2023-03-22T07:44:22.450Z,21.80
2023-03-22T07:44:27.878Z,19.90
2023-03-22T07:44:38.177Z,19.20
2023-03-22T07:44:48.100Z,17.50
2023-03-22T07:44:58.215Z,16.90
2023-03-22T07:45:09.117Z,16.10
2023-03-22T07:45:18.442Z,14.90
2023-03-22T07:45:28.641Z,15.20
2023-03-22T07:45:38.763Z,15.40
2023-03-22T07:45:48.940Z,16.60
2023-03-22T07:45:58.939Z,17.60
2023-03-22T07:46:08.944Z,18.00
2023-03-22T07:46:19.090Z,18.50
2023-03-22T07:46:29.358Z,18.30
2023-03-22T07:46:40.545Z,19.00
2023-03-22T07:46:49.531Z,18.20
2023-03-22T07:46:59.720Z,21.10
2023-03-22T07:47:09.812Z,20.60
2023-03-22T07:47:30.813Z,19.90
2023-03-22T07:47:44.435Z,19.70
2023-03-22T07:47:49.939Z,21.40
2023-03-22T07:48:00.066Z,18.20
2023-03-22T07:48:10.179Z,19.90
2023-03-22T07:48:22.048Z,22.00
2023-03-22T07:48:30.391Z,25.40
2023-03-22T07:48:40.519Z,25.40
2023-03-22T07:48:50.592Z,24.90
2023-03-22T07:49:00.731Z,24.60
2023-03-22T07:49:10.842Z,23.70
2023-03-22T07:49:20.975Z,22.80
2023-03-22T07:49:31.180Z,21.10
2023-03-22T07:49:41.157Z,20.90
2023-03-22T07:49:51.439Z,22.20
2023-03-22T07:50:01.474Z,22.90
2023-03-22T07:50:11.677Z,22.40
2023-03-22T07:50:21.668Z,22.60
2023-03-22T07:50:31.982Z,21.10
2023-03-22T07:50:42.130Z,20.90
2023-03-22T07:50:52.098Z,19.50
2023-03-22T07:51:02.254Z,18.10
2023-03-22T07:51:12.305Z,17.80
2023-03-22T07:51:22.508Z,16.90
2023-03-22T07:51:32.635Z,16.70
2023-03-22T07:51:42.677Z,15.80
2023-03-22T07:51:52.781Z,16.80
2023-03-22T07:52:02.835Z,17.00
2023-03-22T07:52:13.013Z,18.20
2023-03-22T07:52:23.157Z,18.80
2023-03-22T07:52:33.391Z,18.20
2023-03-22T07:52:43.487Z,18.80
2023-03-22T07:52:53.733Z,17.50
2023-03-22T07:53:03.639Z,17.90
2023-03-22T07:53:13.799Z,17.60
2023-03-22T07:53:24.002Z,17.50
2023-03-22T07:53:37.373Z,16.90
2023-03-22T07:53:44.017Z,16.40
2023-03-22T07:53:54.327Z,20.40
2023-03-22T07:54:05.913Z,19.40
2023-03-22T07:54:23.090Z,18.30
2023-03-22T07:54:38.069Z,19.00
2023-03-22T07:54:43.618Z,18.40
2023-03-22T07:54:53.715Z,15.60
2023-03-22T07:55:03.821Z,16.90
2023-03-22T07:55:14.722Z,17.10
2023-03-22T07:55:24.014Z,17.20
2023-03-22T07:55:34.207Z,18.50
2023-03-22T07:55:44.258Z,19.20
2023-03-22T07:55:55.031Z,19.10
2023-03-22T07:56:04.517Z,21.00
2023-03-22T07:56:14.632Z,23.60
2023-03-22T07:56:24.798Z,23.90
2023-03-22T07:56:35.658Z,22.70
2023-03-22T07:56:45.133Z,22.50
2023-03-22T07:56:55.281Z,22.80
2023-03-22T07:57:05.342Z,20.90
2023-03-22T07:57:15.619Z,19.30
2023-03-22T07:57:25.699Z,18.40
2023-03-22T07:57:35.722Z,20.10
2023-03-22T07:57:45.889Z,19.70
2023-03-22T07:57:56.104Z,19.60
2023-03-22T07:58:06.048Z,18.40
2023-03-22T07:58:16.139Z,18.60
2023-03-22T07:58:26.241Z,20.60
2023-03-22T07:58:36.398Z,23.50
2023-03-22T07:58:46.422Z,25.40
2023-03-22T07:58:56.670Z,26.10
2023-03-22T07:59:06.745Z,30.40
2023-03-22T07:59:16.925Z,30.20
2023-03-22T07:59:26.947Z,29.40
2023-03-22T07:59:39.494Z,24.60
2023-03-22T07:59:47.233Z,22.60
2023-03-22T07:59:57.425Z,26.10
2023-03-22T08:00:07.521Z,25.20
2023-03-22T08:00:17.690Z,31.80
2023-03-22T08:00:27.727Z,33.10
2023-03-22T08:00:38.120Z,33.70
2023-03-22T08:00:47.976Z,36.70
2023-03-22T08:00:58.199Z,32.60
2023-03-22T08:01:08.227Z,30.80
2023-03-22T08:01:18.421Z,23.70
2023-03-22T08:01:28.441Z,24.70
2023-03-22T08:01:38.547Z,28.10
2023-03-22T08:01:48.630Z,27.10
2023-03-22T08:01:58.714Z,26.20
2023-03-22T08:02:08.849Z,24.60
2023-03-22T08:02:19.017Z,23.30
2023-03-22T08:02:29.245Z,20.70
2023-03-22T08:02:39.423Z,17.80
2023-03-22T08:02:49.329Z,16.50
2023-03-22T08:02:59.636Z,17.20
2023-03-22T08:03:09.681Z,17.30
2023-03-22T08:03:19.815Z,19.00
2023-03-22T08:03:30.020Z,18.50
2023-03-22T08:03:39.993Z,21.60
2023-03-22T08:03:50.203Z,27.20
2023-03-22T08:04:00.267Z,26.60
2023-03-22T08:04:10.325Z,27.80
2023-03-22T08:04:20.534Z,30.40
2023-03-22T08:04:30.746Z,31.10
2023-03-22T08:04:40.752Z,31.40
2023-03-22T08:04:53.353Z,27.80
2023-03-22T08:05:01.044Z,30.10
2023-03-22T08:05:11.210Z,28.60
2023-03-22T08:05:21.308Z,25.30
2023-03-22T08:05:31.354Z,24.50
2023-03-22T08:05:41.950Z,25.90
2023-03-22T08:05:51.680Z,26.00
2023-03-22T08:06:01.743Z,25.60
2023-03-22T08:06:11.883Z,25.10
2023-03-22T08:06:21.868Z,27.10
2023-03-22T08:06:32.012Z,26.80
2023-03-22T08:06:42.170Z,27.50
2023-03-22T08:06:52.312Z,27.60
2023-03-22T08:07:02.563Z,26.90
2023-03-22T08:07:12.441Z,27.80
2023-03-22T08:07:22.627Z,27.00
2023-03-22T08:07:32.766Z,28.60
2023-03-22T08:07:43.135Z,28.80
2023-03-22T08:07:52.968Z,27.90
2023-03-22T08:08:03.136Z,31.80
2023-03-22T08:08:13.252Z,31.50
2023-03-22T08:08:23.376Z,33.10
2023-03-22T08:08:33.488Z,32.40
2023-03-22T08:08:43.600Z,30.10
2023-03-22T08:08:53.753Z,29.30
2023-03-22T08:09:04.027Z,24.50
2023-03-22T08:09:13.902Z,23.30
2023-03-22T08:09:24.154Z,24.50
2023-03-22T08:09:34.114Z,29.30
2023-03-22T08:09:44.356Z,56.60
2023-03-22T08:09:54.461Z,48.90
2023-03-22T08:10:04.592Z,45.50
2023-03-22T08:10:14.638Z,39.80
2023-03-22T08:10:24.779Z,37.20
2023-03-22T08:10:34.909Z,33.50
2023-03-22T08:10:45.171Z,28.40
2023-03-22T08:10:55.081Z,24.50
2023-03-22T08:11:05.575Z,25.40
2023-03-22T08:11:15.469Z,27.90
2023-03-22T08:11:25.625Z,31.50
2023-03-22T08:11:35.790Z,32.70
2023-03-22T08:11:46.582Z,33.10
2023-03-22T08:11:55.986Z,34.70
2023-03-22T08:12:06.149Z,33.90
2023-03-22T08:12:16.160Z,39.60
2023-03-22T08:12:26.352Z,65.90
2023-03-22T08:12:36.349Z,64.90
2023-03-22T08:12:46.499Z,63.90
2023-03-22T08:12:56.583Z,67.60
2023-03-22T08:13:06.688Z,65.30
2023-03-22T08:13:16.900Z,57.10
2023-03-22T08:13:26.964Z,29.40
2023-03-22T08:13:37.033Z,26.40
2023-03-22T08:13:49.761Z,26.60
2023-03-22T08:13:57.331Z,24.40
2023-03-22T08:14:07.486Z,25.80
2023-03-22T08:14:22.405Z,23.70
2023-03-22T08:14:37.035Z,23.10
2023-03-22T08:14:42.453Z,28.60
2023-03-22T08:14:52.782Z,27.10
2023-03-22T08:15:02.655Z,24.40
2023-03-22T08:15:12.865Z,24.80
2023-03-22T08:15:23.255Z,25.00
2023-03-22T08:15:33.116Z,27.60
2023-03-22T08:15:43.117Z,26.30
2023-03-22T08:15:53.296Z,28.80
2023-03-22T08:16:03.431Z,29.00
2023-03-22T08:16:13.632Z,28.00
2023-03-22T08:16:23.572Z,30.60
2023-03-22T08:16:33.832Z,25.10
2023-03-22T08:16:43.787Z,22.00
2023-03-22T08:16:54.060Z,18.20
2023-03-22T08:17:04.175Z,17.10
2023-03-22T08:17:14.341Z,23.20
2023-03-22T08:17:24.324Z,20.80
2023-03-22T08:17:34.530Z,20.60
2023-03-22T08:17:44.684Z,22.90
2023-03-22T08:17:55.001Z,23.60
2023-03-22T08:18:04.895Z,30.90
2023-03-22T08:18:15.070Z,24.70
2023-03-22T08:18:25.243Z,27.00
2023-03-22T08:18:35.407Z,31.30
2023-03-22T08:18:45.692Z,30.60
2023-03-22T08:18:55.617Z,31.40
2023-03-22T08:19:05.588Z,28.50
2023-03-22T08:19:15.788Z,29.00
2023-03-22T08:19:25.873Z,29.90
2023-03-22T08:19:36.086Z,28.00
2023-03-22T08:19:46.191Z,27.30
2023-03-22T08:19:56.313Z,27.20
2023-03-22T08:20:06.354Z,22.20
2023-03-22T08:20:16.515Z,21.70
2023-03-22T08:20:26.615Z,17.40
2023-03-22T08:20:36.709Z,16.20
2023-03-22T08:20:46.751Z,16.30
2023-03-22T08:20:56.883Z,14.90
2023-03-22T08:21:07.052Z,15.40
2023-03-22T08:21:17.173Z,18.40
2023-03-22T08:21:27.352Z,21.80
2023-03-22T08:21:37.345Z,26.00
2023-03-22T08:21:47.482Z,26.60
2023-03-22T08:21:57.671Z,27.30
2023-03-22T08:22:07.805Z,26.70
2023-03-22T08:22:17.999Z,24.30
2023-03-22T08:22:28.155Z,20.80
2023-03-22T08:22:38.264Z,18.40
2023-03-22T08:22:48.295Z,24.70
2023-03-22T08:22:58.526Z,24.90
2023-03-22T08:23:08.506Z,25.10
2023-03-22T08:23:20.102Z,24.00
2023-03-22T08:23:40.342Z,24.30
2023-03-22T08:23:48.119Z,22.10
2023-03-22T08:23:54.329Z,18.70
2023-03-22T08:24:04.436Z,19.50
2023-03-22T08:24:15.505Z,24.60
2023-03-22T08:24:24.705Z,28.20
2023-03-22T08:24:35.664Z,27.70
2023-03-22T08:24:44.913Z,32.60
2023-03-22T08:24:54.895Z,30.90
2023-03-22T08:25:05.362Z,30.40
2023-03-22T08:25:15.327Z,25.00
2023-03-22T08:25:25.349Z,22.50
2023-03-22T08:25:35.560Z,22.40
2023-03-22T08:25:45.606Z,19.00
2023-03-22T08:25:55.791Z,21.90
2023-03-22T08:26:05.924Z,24.90
2023-03-22T08:26:15.939Z,26.10
2023-03-22T08:26:26.073Z,25.70
2023-03-22T08:26:36.238Z,23.90
2023-03-22T08:26:46.345Z,26.10
2023-03-22T08:26:56.486Z,26.20
2023-03-22T08:27:06.636Z,28.50
2023-03-22T08:27:16.679Z,30.60
2023-03-22T08:27:26.794Z,29.60
2023-03-22T08:27:36.857Z,30.50
2023-03-22T08:27:46.970Z,27.40
2023-03-22T08:27:57.221Z,24.20
2023-03-22T08:28:07.190Z,18.90
2023-03-22T08:28:17.293Z,16.20
2023-03-22T08:28:27.311Z,16.60
2023-03-22T08:28:37.522Z,15.40
2023-03-22T08:28:47.606Z,14.50
2023-03-22T08:28:57.786Z,15.40
2023-03-22T08:29:07.945Z,14.30
2023-03-22T08:29:18.009Z,14.80
2023-03-22T08:29:28.195Z,14.00
2023-03-22T08:29:38.285Z,14.30
2023-03-22T08:29:48.423Z,14.20
2023-03-22T08:29:58.508Z,13.40
2023-03-22T08:30:08.608Z,13.20
2023-03-22T08:30:19.124Z,13.00
2023-03-22T08:30:28.987Z,13.70
2023-03-22T08:30:39.406Z,14.60
2023-03-22T08:30:49.111Z,18.40
2023-03-22T08:30:59.402Z,17.90
